Time;durP1;ratioP1;P1;durP2;ratioP2;P2;SDS_P1;SDS_P2;PMS_P1;PMS_P2;Temp;Humidity;BMP_temperature;BMP_pressure;BME280_temperature;BME280_humidity;BME280_pressure;Samples;Min_cycle;Max_cycle;Signal;HPM_P1;HPM_P2
2021/09/24 00:01:17;;;;;;;4.97;4.50;;;;;;;16.47;62.96;95844.41;5072489;28;20207;-87
2021/09/24 00:03:44;;;;;;;6.07;5.57;;;;;;;16.47;63.46;95840.00;5072410;28;20208;-89
2021/09/24 00:06:10;;;;;;;5.90;5.40;;;;;;;16.52;62.85;95839.41;5072187;28;20201;-87
2021/09/24 00:08:37;;;;;;;5.10;4.68;;;;;;;16.56;62.85;95845.75;5072287;28;20221;-87
2021/09/24 00:11:03;;;;;;;5.30;4.90;;;;;;;16.55;63.58;95842.34;5072665;28;20204;-87
2021/09/24 00:13:30;;;;;;;5.85;5.22;;;;;;;16.53;63.58;95846.19;5072146;28;20196;-87
2021/09/24 00:15:56;;;;;;;6.82;5.68;;;;;;;16.49;63.54;95843.19;5072145;28;20204;-88
2021/09/24 00:18:24;;;;;;;5.50;5.00;;;;;;;16.46;64.01;95848.00;5072196;28;20243;-87
2021/09/24 00:20:51;;;;;;;6.13;5.53;;;;;;;16.43;64.65;95843.22;5064745;28;20198;-88
2021/09/24 00:23:17;;;;;;;7.22;5.68;;;;;;;16.45;63.92;95836.81;5052013;28;20202;-87
2021/09/24 00:25:43;;;;;;;6.22;5.72;;;;;;;16.48;64.16;95839.00;5051570;28;20689;-88
2021/09/24 00:28:10;;;;;;;5.97;5.47;;;;;;;16.51;64.43;95837.81;5051468;28;20244;-87
2021/09/24 00:30:38;;;;;;;6.80;6.20;;;;;;;16.49;64.49;95835.41;5051941;28;20205;-87
2021/09/24 00:33:07;;;;;;;6.40;5.80;;;;;;;16.51;64.48;95830.00;5051708;28;20205;-87
2021/09/24 00:35:34;;;;;;;6.22;5.57;;;;;;;16.50;64.31;95824.00;5051368;28;20194;-87
2021/09/24 00:38:01;;;;;;;6.95;6.28;;;;;;;16.47;64.59;95819.22;5051291;28;20236;-87
2021/09/24 00:40:27;;;;;;;6.35;5.85;;;;;;;16.40;65.28;95822.84;5051653;28;20205;-87
2021/09/24 00:42:54;;;;;;;6.30;5.80;;;;;;;16.42;64.69;95826.84;5051857;28;20224;-87
2021/09/24 00:45:20;;;;;;;6.00;5.50;;;;;;;16.45;65.21;95821.22;5051294;28;20228;-88
2021/09/24 00:47:47;;;;;;;6.13;5.53;;;;;;;16.48;65.23;95809.63;5051791;28;20226;-87
2021/09/24 00:50:15;;;;;;;6.25;5.65;;;;;;;16.41;65.53;95814.84;5051754;28;20201;-87
2021/09/24 00:52:43;;;;;;;6.45;5.85;;;;;;;16.46;65.36;95809.81;5051790;28;20205;-90
2021/09/24 00:55:10;;;;;;;6.50;5.90;;;;;;;16.43;65.94;95810.22;5066821;28;20196;-87
2021/09/24 00:57:37;;;;;;;6.07;5.57;;;;;;;16.43;65.96;95809.44;5070883;28;20205;-86
2021/09/24 01:00:06;;;;;;;6.75;6.18;;;;;;;16.41;65.66;95807.03;5071295;28;20204;-88
2021/09/24 01:02:33;;;;;;;7.53;6.25;;;;;;;16.45;65.80;95804.84;5071026;28;20200;-87
2021/09/24 01:04:59;;;;;;;7.03;5.70;;;;;;;16.45;65.98;95817.81;5070726;28;20224;-87
2021/09/24 01:07:26;;;;;;;6.63;5.70;;;;;;;16.42;66.00;95818.25;5070757;28;20572;-88
2021/09/24 01:09:56;;;;;;;6.07;5.57;;;;;;;16.41;66.40;95814.84;5071097;28;20601;-87
2021/09/24 01:12:22;;;;;;;6.25;5.75;;;;;;;16.37;66.57;95812.84;5070542;28;20254;-89
2021/09/24 01:14:58;;;;;;;7.28;5.97;;;;;;;16.31;67.03;95806.69;5070565;28;20227;-87
2021/09/24 01:17:24;;;;;;;5.78;5.28;;;;;;;16.34;66.59;95815.88;5070787;28;20320;-91
2021/09/24 01:19:51;;;;;;;6.20;5.68;;;;;;;16.35;66.58;95822.69;5070698;28;20685;-87
2021/09/24 01:22:19;;;;;;;6.63;5.95;;;;;;;16.34;66.80;95823.69;5070295;28;20633;-87
2021/09/24 01:24:45;;;;;;;6.63;5.90;;;;;;;16.32;67.19;95818.69;5070385;28;20217;-87
2021/09/24 01:27:11;;;;;;;6.18;5.65;;;;;;;16.32;67.39;95823.09;5070459;28;20197;-87
2021/09/24 01:29:38;;;;;;;5.90;5.40;;;;;;;16.38;67.44;95817.03;5070817;28;20220;-86
2021/09/24 01:32:05;;;;;;;7.50;6.07;;;;;;;16.35;67.38;95817.50;5070918;28;20212;-87
2021/09/24 01:34:32;;;;;;;6.15;5.65;;;;;;;16.33;67.79;95822.09;5070561;28;20205;-88
2021/09/24 01:36:58;;;;;;;6.72;6.13;;;;;;;16.31;67.61;95808.50;5070088;28;20706;-87
2021/09/24 01:39:26;;;;;;;6.85;6.00;;;;;;;16.27;68.12;95810.72;5070321;28;20638;-89
2021/09/24 01:41:53;;;;;;;6.68;5.97;;;;;;;16.26;68.38;95813.50;5070515;28;20292;-88
2021/09/24 01:44:20;;;;;;;6.53;5.93;;;;;;;16.26;68.45;95816.09;5069855;28;20579;-88
2021/09/24 01:46:47;;;;;;;6.47;5.97;;;;;;;16.27;68.19;95812.50;5070395;28;20801;-87
2021/09/24 01:49:14;;;;;;;6.72;6.05;;;;;;;16.26;68.86;95809.13;5070135;28;20224;-87
2021/09/24 01:51:44;;;;;;;6.70;6.10;;;;;;;16.16;69.45;95808.75;5070571;28;20569;-89
2021/09/24 01:54:12;;;;;;;6.32;5.80;;;;;;;16.13;69.28;95802.19;5070471;28;20597;-86
2021/09/24 01:56:40;;;;;;;7.00;6.30;;;;;;;16.09;69.52;95803.59;5070593;28;20205;-87
2021/09/24 01:59:07;;;;;;;6.07;5.53;;;;;;;16.11;69.57;95804.19;5069597;28;20240;-88
2021/09/24 02:01:33;;;;;;;7.03;6.32;;;;;;;16.10;69.83;95802.59;5070112;28;20582;-88
2021/09/24 02:04:00;;;;;;;6.75;6.07;;;;;;;16.04;69.87;95798.19;5069723;28;20200;-87
2021/09/24 02:06:26;;;;;;;6.60;5.97;;;;;;;16.04;70.03;95802.59;5070080;28;20596;-87
2021/09/24 02:08:53;;;;;;;6.25;5.75;;;;;;;15.98;69.89;95798.22;5070451;28;20220;-87
2021/09/24 02:11:19;;;;;;;6.60;6.00;;;;;;;15.95;69.96;95802.03;5070324;28;20595;-89
2021/09/24 02:13:48;;;;;;;6.63;5.97;;;;;;;16.01;69.86;95803.78;5069970;28;20201;-87
2021/09/24 02:16:14;;;;;;;7.35;6.65;;;;;;;16.05;69.47;95806.78;5069820;28;20254;-87
2021/09/24 02:18:43;;;;;;;6.93;6.30;;;;;;;16.10;69.27;95812.16;5070179;28;20216;-87
2021/09/24 02:21:13;;;;;;;6.40;5.90;;;;;;;16.14;69.00;95810.75;5069840;28;20193;-88
2021/09/24 02:23:39;;;;;;;6.47;5.75;;;;;;;16.10;69.92;95815.56;5070735;28;20208;-87
2021/09/24 02:26:06;;;;;;;6.75;6.25;;;;;;;16.07;69.39;95820.38;5073785;28;20231;-88
2021/09/24 02:28:33;;;;;;;7.00;6.38;;;;;;;16.03;69.78;95822.56;5073843;28;20225;-86
2021/09/24 02:31:01;;;;;;;6.68;5.97;;;;;;;16.01;70.25;95818.56;5073657;28;20200;-87
2021/09/24 02:33:28;;;;;;;7.10;5.97;;;;;;;15.99;70.49;95825.78;5074034;28;20201;-90
2021/09/24 02:35:54;;;;;;;6.55;5.95;;;;;;;16.02;70.06;95818.38;5073603;28;20254;-87
2021/09/24 02:38:21;;;;;;;6.40;5.88;;;;;;;15.97;70.66;95823.38;5073624;28;20639;-87
2021/09/24 02:40:47;;;;;;;6.32;5.82;;;;;;;16.01;70.42;95832.38;5073788;28;20203;-87
2021/09/24 02:43:13;;;;;;;6.90;6.30;;;;;;;16.02;70.19;95827.97;5073321;28;20193;-87
2021/09/24 02:45:41;;;;;;;6.78;6.22;;;;;;;15.99;70.43;95838.75;5073296;28;20220;-89
2021/09/24 02:48:09;;;;;;;7.40;6.68;;;;;;;15.95;70.47;95835.78;5073988;28;20220;-87
2021/09/24 02:50:35;;;;;;;6.63;6.03;;;;;;;15.87;70.88;95834.19;5073984;28;20196;-87
2021/09/24 02:53:02;;;;;;;7.00;6.40;;;;;;;15.91;70.50;95833.81;5073785;28;20201;-87
2021/09/24 02:55:29;;;;;;;6.97;5.80;;;;;;;15.90;70.71;95833.00;5073873;28;20186;-89
2021/09/24 02:57:55;;;;;;;7.00;6.30;;;;;;;15.92;71.10;95831.00;5072972;28;20235;-87
2021/09/24 03:00:22;;;;;;;7.75;6.35;;;;;;;15.89;70.91;95826.22;5073313;28;20201;-88
2021/09/24 03:02:48;;;;;;;8.05;7.25;;;;;;;15.87;70.54;95823.81;5073439;28;20208;-87
2021/09/24 03:05:16;;;;;;;6.78;5.95;;;;;;;15.87;71.25;95830.81;5073129;28;20229;-87
2021/09/24 03:07:43;;;;;;;6.82;6.22;;;;;;;15.84;70.91;95824.22;5073058;28;20212;-89
2021/09/24 03:10:10;;;;;;;6.70;6.13;;;;;;;15.79;71.42;95828.41;5073065;28;20686;-88
2021/09/24 03:12:37;;;;;;;6.80;6.20;;;;;;;15.75;71.35;95830.63;5072770;28;20193;-87
2021/09/24 03:15:05;;;;;;;6.80;6.13;;;;;;;15.64;72.30;95831.25;5073050;28;20568;-86
2021/09/24 03:17:32;;;;;;;7.18;6.45;;;;;;;15.58;72.42;95820.88;5073001;28;20584;-87
2021/09/24 03:19:58;;;;;;;6.75;6.15;;;;;;;15.60;72.12;95829.25;5073123;28;20216;-87
2021/09/24 03:22:26;;;;;;;6.88;6.28;;;;;;;15.58;72.55;95826.88;5053074;28;20212;-88
2021/09/24 03:24:53;;;;;;;7.43;6.13;;;;;;;15.62;72.51;95837.63;5052740;28;20209;-89
2021/09/24 03:27:20;;;;;;;6.45;5.80;;;;;;;15.67;71.93;95833.44;5052909;28;20205;-87
2021/09/24 03:29:46;;;;;;;7.38;6.50;;;;;;;15.70;71.80;95840.81;5053238;28;20250;-87
2021/09/24 03:32:13;;;;;;;7.23;6.57;;;;;;;15.72;71.96;95843.22;5053109;28;20208;-87
2021/09/24 03:34:40;;;;;;;7.03;6.43;;;;;;;15.72;71.73;95840.63;5052451;28;20208;-87
2021/09/24 03:37:07;;;;;;;7.25;6.55;;;;;;;15.73;71.57;95843.03;5052795;28;20209;-89
2021/09/24 03:39:34;;;;;;;7.15;6.50;;;;;;;15.73;71.46;95847.41;5052260;28;20232;-87
2021/09/24 03:42:01;;;;;;;6.97;6.38;;;;;;;15.69;71.69;95836.63;5052334;28;20221;-87
2021/09/24 03:44:27;;;;;;;7.20;6.50;;;;;;;15.56;72.33;95833.25;5072127;28;20204;-89
2021/09/24 03:46:54;;;;;;;7.05;6.38;;;;;;;15.56;72.46;95826.28;5072407;28;20220;-88
2021/09/24 03:49:20;;;;;;;7.65;6.78;;;;;;;15.58;71.88;95826.88;5072360;28;20225;-87
2021/09/24 03:51:46;;;;;;;6.50;6.00;;;;;;;15.50;72.28;95822.66;5072292;28;20201;-87
2021/09/24 03:54:13;;;;;;;7.18;6.50;;;;;;;15.49;72.64;95823.66;5064029;28;20197;-87
2021/09/24 03:56:43;;;;;;;7.28;6.57;;;;;;;15.45;73.11;95824.22;5052210;28;20194;-87
2021/09/24 03:59:09;;;;;;;6.70;6.00;;;;;;;15.53;72.11;95821.44;5051536;28;20744;-88
2021/09/24 04:01:36;;;;;;;6.80;6.13;;;;;;;15.53;72.20;95832.63;5052238;28;20336;-88
2021/09/24 04:04:02;;;;;;;7.00;6.30;;;;;;;15.45;73.04;95827.63;5051989;28;20209;-87
2021/09/24 04:06:32;;;;;;;7.03;6.43;;;;;;;15.47;72.88;95824.84;5052096;28;20233;-88
2021/09/24 04:08:58;;;;;;;7.47;6.70;;;;;;;15.50;72.60;95834.81;5052019;28;20328;-86
2021/09/24 04:11:26;;;;;;;7.25;6.15;;;;;;;15.51;72.61;95828.63;5052465;28;20202;-89
2021/09/24 04:13:53;;;;;;;7.45;6.65;;;;;;;15.53;72.02;95830.03;5052201;28;20296;-89
2021/09/24 04:16:21;;;;;;;7.35;6.65;;;;;;;15.46;72.65;95820.66;5052165;28;20228;-90
2021/09/24 04:18:48;;;;;;;7.22;6.43;;;;;;;15.43;72.80;95824.44;5052215;28;20271;-88
2021/09/24 04:21:15;;;;;;;7.00;6.37;;;;;;;15.42;72.84;95825.44;5062216;28;20201;-89
2021/09/24 04:23:41;;;;;;;6.70;6.10;;;;;;;15.44;72.48;95840.81;5071743;28;20209;-87
2021/09/24 04:26:08;;;;;;;6.67;6.07;;;;;;;15.46;72.48;95831.81;5071570;28;20228;-87
2021/09/24 04:28:36;;;;;;;7.03;6.18;;;;;;;15.45;72.71;95825.03;5071614;28;20256;-87
2021/09/24 04:31:04;;;;;;;7.13;6.43;;;;;;;15.39;73.00;95828.44;5071720;28;20201;-87
2021/09/24 04:33:31;;;;;;;6.67;6.07;;;;;;;15.39;72.97;95832.84;5071506;28;20289;-87
2021/09/24 04:35:57;;;;;;;7.50;6.70;;;;;;;15.36;73.01;95826.25;5070701;28;20197;-87
2021/09/24 04:38:24;;;;;;;6.93;6.32;;;;;;;15.37;72.60;95829.66;5071265;28;20232;-87
2021/09/24 04:40:50;;;;;;;7.40;6.78;;;;;;;15.32;73.23;95825.06;5074881;22;20233;-88
2021/09/24 04:43:16;;;;;;;6.70;6.10;;;;;;;15.32;73.04;95832.84;5055133;28;20603;-86
2021/09/24 04:45:43;;;;;;;7.47;6.57;;;;;;;15.34;72.91;95830.03;5054853;28;20237;-87
2021/09/24 04:48:11;;;;;;;6.73;6.13;;;;;;;15.36;73.24;95833.25;5054309;28;20201;-87
2021/09/24 04:50:37;;;;;;;7.57;6.53;;;;;;;15.37;72.75;95840.03;5055556;28;20228;-87
2021/09/24 04:53:04;;;;;;;6.87;6.20;;;;;;;15.38;73.07;95832.03;5055649;28;20208;-86
2021/09/24 04:55:31;;;;;;;7.17;6.50;;;;;;;15.35;73.28;95837.63;5055158;28;20194;-87
2021/09/24 04:57:58;;;;;;;9.93;7.30;;;;;;;15.35;72.87;95831.63;5055097;28;20243;-88
2021/09/24 05:00:24;;;;;;;7.30;6.60;;;;;;;15.33;73.16;95841.41;5055979;28;20221;-88
2021/09/24 05:02:51;;;;;;;7.50;6.68;;;;;;;15.35;72.68;95837.63;5056347;28;20200;-87
2021/09/24 05:05:19;;;;;;;6.90;6.18;;;;;;;15.34;73.19;95849.00;5055798;28;20687;-87
2021/09/24 05:07:46;;;;;;;8.32;7.20;;;;;;;15.32;72.72;95850.19;5055940;28;20198;-88
2021/09/24 05:10:12;;;;;;;7.55;6.70;;;;;;;15.33;73.37;95862.97;5055168;28;20248;-88
2021/09/24 05:12:39;;;;;;;6.95;6.25;;;;;;;15.33;73.44;95855.19;5054917;28;20201;-87
2021/09/24 05:15:06;;;;;;;7.22;6.53;;;;;;;15.34;73.19;95854.19;5055314;28;20201;-87
2021/09/24 05:17:33;;;;;;;6.93;6.32;;;;;;;15.38;72.78;95854.59;5055501;28;20205;-88
2021/09/24 05:20:00;;;;;;;9.23;7.07;;;;;;;15.37;72.91;95858.19;5055080;28;20288;-87
2021/09/24 05:22:28;;;;;;;7.43;6.60;;;;;;;15.40;72.86;95860.34;5055608;28;20561;-88
2021/09/24 05:24:54;;;;;;;7.68;6.85;;;;;;;15.37;72.99;95856.38;5054827;28;20201;-88
2021/09/24 05:27:21;;;;;;;7.50;6.70;;;;;;;15.33;73.21;95862.16;5055543;28;20225;-88
2021/09/24 05:29:47;;;;;;;7.18;6.25;;;;;;;15.37;72.85;95863.38;5055810;28;20222;-88
2021/09/24 05:32:14;;;;;;;7.70;6.55;;;;;;;15.33;73.34;95873.34;5054853;28;20213;-87
2021/09/24 05:34:41;;;;;;;7.35;6.28;;;;;;;15.38;73.20;95872.75;5055088;28;20209;-87
2021/09/24 05:37:09;;;;;;;7.28;6.57;;;;;;;15.38;73.16;95867.56;5055372;28;20288;-87
2021/09/24 05:39:43;;;;;;;7.50;6.78;;;;;;;15.39;74.02;95871.75;5054875;28;20291;-86
2021/09/24 05:42:10;;;;;;;7.50;6.80;;;;;;;15.46;73.18;95875.13;5055232;28;20347;-88
2021/09/24 05:44:37;;;;;;;8.45;7.30;;;;;;;15.49;73.46;95872.16;5054518;28;20201;-87
2021/09/24 05:47:04;;;;;;;7.65;6.72;;;;;;;15.51;72.74;95878.75;5054230;28;20225;-86
2021/09/24 05:49:31;;;;;;;8.70;7.88;;;;;;;15.50;72.63;95882.34;5054398;28;20221;-87
2021/09/24 05:52:01;;;;;;;7.68;6.88;;;;;;;15.50;72.58;95886.72;5054004;28;20201;-87
2021/09/24 05:54:27;;;;;;;8.63;7.28;;;;;;;15.52;72.71;95884.72;5054507;28;20209;-85
2021/09/24 05:56:55;;;;;;;7.90;6.53;;;;;;;15.59;72.52;95889.97;5054779;28;20197;-87
2021/09/24 05:59:22;;;;;;;7.45;6.70;;;;;;;15.57;72.49;95897.16;5054437;28;20274;-87
2021/09/24 06:01:49;;;;;;;8.23;6.55;;;;;;;15.54;72.44;95895.72;5054799;28;20216;-87
2021/09/24 06:04:19;;;;;;;7.63;6.82;;;;;;;15.59;72.80;95892.56;5054952;28;20205;-87
2021/09/24 06:06:48;;;;;;;7.70;6.90;;;;;;;15.57;72.94;95902.34;5054341;28;20221;-88
2021/09/24 06:09:15;;;;;;;7.30;6.57;;;;;;;15.58;72.73;95903.94;5055517;28;20208;-88
2021/09/24 06:11:42;;;;;;;7.22;6.47;;;;;;;15.57;72.86;95899.75;5055459;28;20201;-87
2021/09/24 06:14:10;;;;;;;8.15;7.35;;;;;;;15.65;72.94;95907.31;5055303;28;20209;-86
2021/09/24 06:16:36;;;;;;;8.00;7.20;;;;;;;15.64;72.60;95903.13;5056043;28;20201;-88
2021/09/24 06:19:03;;;;;;;9.27;8.17;;;;;;;15.74;72.52;95904.34;5055527;28;20206;-84
2021/09/24 06:21:29;;;;;;;14.23;12.65;;;;;;;15.83;72.42;95907.50;5042071;28;20213;-87
2021/09/24 06:23:57;;;;;;;8.48;7.22;;;;;;;15.97;71.61;95908.31;5034345;28;20210;-88
2021/09/24 06:26:24;;;;;;;7.60;6.80;;;;;;;16.19;71.03;95913.03;5034160;28;20264;-86
2021/09/24 06:28:50;;;;;;;8.77;6.70;;;;;;;16.30;70.60;95916.84;5048908;28;20202;-88
2021/09/24 06:31:18;;;;;;;7.40;6.70;;;;;;;16.52;69.59;95910.38;5054321;28;20632;-85
2021/09/24 06:33:45;;;;;;;7.28;6.68;;;;;;;16.74;68.85;95907.53;5054273;28;20236;-86
2021/09/24 06:36:17;;;;;;;6.88;6.25;;;;;;;16.77;68.29;95902.69;5053813;28;20224;-87
2021/09/24 06:38:46;;;;;;;8.23;6.53;;;;;;;16.98;67.96;95906.00;5054111;28;20233;-88
2021/09/24 06:41:19;;;;;;;10.00;6.63;;;;;;;17.17;67.85;95899.88;5054216;28;20233;-88
2021/09/24 06:43:45;;;;;;;7.97;5.80;;;;;;;17.41;66.76;95909.53;5054684;28;20208;-86
2021/09/24 06:46:14;;;;;;;6.78;6.18;;;;;;;17.49;66.19;95901.50;5053773;28;20221;-87
2021/09/24 06:48:42;;;;;;;6.65;6.05;;;;;;;17.72;65.88;95911.34;5054178;28;20198;-88
2021/09/24 06:51:12;;;;;;;6.10;5.50;;;;;;;17.86;65.05;95904.22;5055000;28;20217;-87
2021/09/24 06:53:40;;;;;;;5.78;5.22;;;;;;;17.91;65.09;95904.38;5055296;28;20189;-88
2021/09/24 06:56:07;;;;;;;7.10;5.97;;;;;;;18.01;64.03;95909.09;5055466;28;20227;-88
2021/09/24 06:58:33;;;;;;;6.13;5.53;;;;;;;18.22;63.96;95912.09;5054726;28;20507;-86
2021/09/24 07:01:01;;;;;;;6.55;5.93;;;;;;;18.40;62.79;95918.34;5055481;28;20283;-86
2021/09/24 07:03:27;;;;;;;7.15;5.47;;;;;;;18.63;62.42;95911.50;5056498;28;20289;-87
2021/09/24 07:05:55;;;;;;;6.43;5.60;;;;;;;18.75;61.26;95910.75;5056127;28;20214;-84
2021/09/24 07:08:27;;;;;;;6.20;5.60;;;;;;;18.85;60.95;95911.84;5055011;28;20208;-87
2021/09/24 07:10:53;;;;;;;6.40;5.80;;;;;;;18.74;60.70;95909.94;5057027;28;20228;-86
2021/09/24 07:13:20;;;;;;;6.13;5.57;;;;;;;18.95;60.80;95913.91;5058538;28;20201;-86
2021/09/24 07:15:46;;;;;;;5.97;5.38;;;;;;;19.17;60.17;95909.81;5058730;28;20284;-85
2021/09/24 07:18:13;;;;;;;13.48;11.80;;;;;;;19.31;59.57;95919.03;5058784;28;20205;-86
2021/09/24 07:20:39;;;;;;;6.60;5.90;;;;;;;19.41;59.13;95922.94;5052126;28;20225;-88
2021/09/24 07:23:07;;;;;;;6.18;5.35;;;;;;;19.67;58.48;95925.97;5037660;28;20600;-86
2021/09/24 07:25:34;;;;;;;6.03;5.50;;;;;;;19.62;57.59;95914.63;5038160;28;20306;-88
2021/09/24 07:28:00;;;;;;;5.75;5.18;;;;;;;19.89;57.38;95921.00;5037677;28;20218;-86
2021/09/24 07:30:27;;;;;;;6.63;5.68;;;;;;;20.06;57.53;95928.94;5037595;28;20229;-87
2021/09/24 07:33:02;;;;;;;6.72;5.28;;;;;;;20.17;57.12;95925.56;5038667;28;20224;-88
2021/09/24 07:35:29;;;;;;;5.07;4.63;;;;;;;20.22;55.90;95925.66;5037902;28;20212;-87
2021/09/24 07:37:59;;;;;;;5.95;4.97;;;;;;;20.46;56.00;95925.66;5038744;28;20194;-87
2021/09/24 07:40:28;;;;;;;6.03;4.55;;;;;;;20.40;55.37;95929.22;5037086;28;20661;-88
2021/09/24 07:42:54;;;;;;;5.55;4.85;;;;;;;20.39;55.37;95925.00;5037669;28;20230;-87
2021/09/24 07:45:22;;;;;;;6.57;5.57;;;;;;;20.46;54.77;95926.47;5036736;28;20202;-88
2021/09/24 07:47:48;;;;;;;5.10;4.70;;;;;;;20.63;55.24;95918.69;5037911;28;20233;-87
2021/09/24 07:50:15;;;;;;;8.25;4.82;;;;;;;20.74;54.61;95930.97;5036925;28;20250;-86
2021/09/24 07:52:42;;;;;;;6.13;4.80;;;;;;;21.07;54.02;95930.28;5037379;28;20237;-88
2021/09/24 07:55:09;;;;;;;5.60;5.10;;;;;;;21.22;53.12;95937.66;5053002;28;20197;-88
2021/09/24 07:57:37;;;;;;;5.47;4.93;;;;;;;21.20;52.65;95931.84;5056645;28;20198;-86
2021/09/24 08:00:11;;;;;;;4.97;4.47;;;;;;;21.45;52.64;95934.94;5057377;28;20225;-88
2021/09/24 08:02:38;;;;;;;5.70;4.78;;;;;;;21.59;52.23;95930.19;5057622;28;20208;-88
2021/09/24 08:05:06;;;;;;;6.55;4.65;;;;;;;21.83;51.72;95934.25;5056437;28;20209;-88
2021/09/24 08:07:33;;;;;;;5.13;4.63;;;;;;;21.71;51.44;95938.78;5056400;28;20231;-86
2021/09/24 08:09:59;;;;;;;6.03;4.38;;;;;;;21.91;51.50;95941.72;5057556;28;20232;-85
2021/09/24 08:12:27;;;;;;;4.20;3.90;;;;;;;22.24;52.09;95933.06;5057579;28;20197;-87
2021/09/24 08:14:55;;;;;;;4.30;3.90;;;;;;;22.50;50.66;95941.28;5057294;28;20233;-86
2021/09/24 08:17:21;;;;;;;5.45;4.18;;;;;;;22.66;50.26;95935.19;5057519;28;20197;-86
2021/09/24 08:19:48;;;;;;;5.15;4.25;;;;;;;22.81;49.75;95937.25;5056892;28;20228;-88
2021/09/24 08:22:16;;;;;;;5.63;4.35;;;;;;;22.83;48.57;95933.34;5055252;28;20204;-87
2021/09/24 08:24:42;;;;;;;5.28;3.90;;;;;;;22.94;49.26;95926.34;5056495;28;20228;-87
2021/09/24 08:27:09;;;;;;;4.15;3.75;;;;;;;22.86;47.55;95924.97;5055873;28;20228;-88
2021/09/24 08:29:36;;;;;;;4.43;4.00;;;;;;;22.89;48.30;95926.31;5056108;28;20241;-86
2021/09/24 08:32:10;;;;;;;5.07;3.88;;;;;;;22.89;48.19;95939.44;5056317;28;20205;-88
2021/09/24 08:34:36;;;;;;;3.97;3.63;;;;;;;22.87;48.03;95937.06;5055907;28;20250;-87
2021/09/24 08:37:03;;;;;;;4.45;4.10;;;;;;;22.96;47.62;95940.03;5056974;28;20232;-88
2021/09/24 08:39:31;;;;;;;4.47;4.07;;;;;;;23.12;47.89;95948.88;5055932;28;20257;-87
2021/09/24 08:41:58;;;;;;;5.13;4.63;;;;;;;23.30;47.48;95943.28;5056963;28;20204;-86
2021/09/24 08:44:27;;;;;;;4.43;4.13;;;;;;;23.45;47.05;95940.84;5056441;28;20718;-86
2021/09/24 08:46:53;;;;;;;4.38;4.00;;;;;;;23.49;46.87;95944.53;5056911;28;20633;-88
2021/09/24 08:49:21;;;;;;;4.85;4.35;;;;;;;23.19;46.71;95934.53;5056215;28;20247;-86
2021/09/24 08:51:51;;;;;;;4.78;4.28;;;;;;;23.19;47.01;95931.91;5056878;28;20209;-88
2021/09/24 08:54:17;;;;;;;5.35;4.35;;;;;;;23.21;46.91;95932.44;5056995;28;20193;-86
2021/09/24 08:56:44;;;;;;;4.60;4.20;;;;;;;23.28;46.92;95934.88;5056772;28;20208;-86
2021/09/24 08:59:10;;;;;;;4.70;4.30;;;;;;;23.35;47.16;95932.84;5056343;28;20229;-87
2021/09/24 09:01:57;;;;;;;5.35;4.10;;;;;;;23.62;46.46;95932.88;5056055;28;20608;-88
2021/09/24 09:04:37;;;;;;;4.90;4.40;;;;;;;23.71;46.04;95926.88;5056714;28;20614;-88
2021/09/24 09:07:16;;;;;;;5.47;4.47;;;;;;;23.63;46.31;95924.72;5056232;28;20233;-87
2021/09/24 09:09:44;;;;;;;5.35;4.85;;;;;;;23.63;46.08;95919.47;5056657;28;20252;-86
2021/09/24 09:12:14;;;;;;;5.88;3.90;;;;;;;23.74;46.58;95918.50;5056063;28;20314;-87
2021/09/24 09:14:40;;;;;;;5.28;4.18;;;;;;;23.74;46.64;95930.84;5055222;28;20205;-88
2021/09/24 09:17:30;;;;;;;5.22;4.05;;;;;;;23.63;46.61;95908.97;5055851;28;20275;-87
2021/09/24 09:20:14;;;;;;;4.47;4.00;;;;;;;23.81;47.55;95912.25;5056321;28;20217;-87
2021/09/24 09:22:41;;;;;;;4.68;4.20;;;;;;;23.88;46.39;95912.81;5036589;28;20209;-86
2021/09/24 09:25:13;;;;;;;7.22;3.50;;;;;;;23.99;45.31;95907.38;5036001;28;20198;-87
2021/09/24 09:27:46;;;;;;;4.88;3.75;;;;;;;23.93;45.25;95907.59;5035918;28;20261;-89
2021/09/24 09:30:13;;;;;;;5.57;3.60;;;;;;;23.89;45.39;95906.50;5035574;28;20501;-88
2021/09/24 09:32:40;;;;;;;6.75;3.72;;;;;;;23.64;45.79;95913.19;5037010;28;20198;-88
2021/09/24 09:35:08;;;;;;;4.22;3.83;;;;;;;23.72;46.20;95907.44;5036297;28;20253;-87
2021/09/24 09:37:38;;;;;;;6.70;6.00;;;;;;;23.60;45.59;95909.47;5035914;28;20205;-87
2021/09/24 09:40:16;;;;;;;4.15;3.85;;;;;;;23.62;45.61;95910.00;5036646;28;20316;-89
2021/09/24 09:42:45;;;;;;;3.97;3.67;;;;;;;23.43;45.03;95899.03;5041507;28;20217;-87
2021/09/24 09:45:15;;;;;;;3.90;3.60;;;;;;;23.47;45.21;95903.78;5055772;28;20696;-88
2021/09/24 09:47:45;;;;;;;4.07;3.63;;;;;;;23.48;45.94;95903.50;5055401;28;20217;-88
2021/09/24 09:50:14;;;;;;;3.92;3.58;;;;;;;23.33;45.77;95900.75;5056478;28;20252;-88
2021/09/24 09:53:04;;;;;;;3.75;3.40;;;;;;;23.43;46.43;95899.03;5056773;28;20204;-89
2021/09/24 09:55:32;;;;;;;3.97;3.30;;;;;;;23.45;46.48;95893.53;5037885;28;20194;-88
2021/09/24 09:58:06;;;;;;;7.38;3.80;;;;;;;23.46;46.41;95895.13;5034934;28;20286;-86
2021/09/24 10:00:37;;;;;;;5.32;3.83;;;;;;;23.55;46.18;95880.50;5036119;28;20231;-87
2021/09/24 10:03:12;;;;;;;4.97;3.38;;;;;;;23.46;45.94;95884.59;5036041;28;20210;-88
2021/09/24 10:05:41;;;;;;;4.20;3.80;;;;;;;23.21;46.24;95892.25;5035990;28;20197;-88
2021/09/24 10:08:26;;;;;;;4.00;3.67;;;;;;;23.17;46.29;95876.19;5036369;28;20863;-88
2021/09/24 10:10:57;;;;;;;4.35;3.95;;;;;;;23.04;47.04;95879.22;5035073;28;20225;-88
2021/09/24 10:13:24;;;;;;;4.43;3.67;;;;;;;22.93;47.28;95873.03;5046470;28;20189;-86
2021/09/24 10:15:51;;;;;;;6.05;4.10;;;;;;;22.76;48.02;95877.56;5055245;28;20189;-88
2021/09/24 10:18:17;;;;;;;4.43;4.03;;;;;;;22.78;47.85;95875.50;5055498;28;20202;-89
2021/09/24 10:20:44;;;;;;;3.90;3.60;;;;;;;22.77;48.58;95880.97;5056178;28;20321;-86
2021/09/24 10:23:10;;;;;;;4.80;4.25;;;;;;;22.80;48.23;95873.44;5055965;28;20205;-88
2021/09/24 10:25:40;;;;;;;5.35;3.70;;;;;;;22.90;48.32;95872.75;5055423;28;20209;-88
2021/09/24 10:28:08;;;;;;;4.05;3.75;;;;;;;23.05;48.46;95870.28;5055759;28;20224;-88
2021/09/24 10:30:37;;;;;;;3.83;3.50;;;;;;;23.07;48.17;95866.38;5055889;28;20221;-88
2021/09/24 10:33:10;;;;;;;3.95;3.65;;;;;;;23.22;48.14;95870.19;5055432;28;20208;-88
2021/09/24 10:35:49;;;;;;;4.20;3.80;;;;;;;23.16;47.80;95855.41;5055511;28;20205;-89
2021/09/24 10:38:17;;;;;;;4.63;4.18;;;;;;;23.12;48.02;95862.97;5056374;28;20204;-87
2021/09/24 10:40:57;;;;;;;4.82;3.92;;;;;;;23.13;48.82;95861.16;5077345;23;20263;-88
2021/09/24 10:43:23;;;;;;;4.18;3.88;;;;;;;23.14;49.18;95860.13;5069823;28;20586;-88
2021/09/24 10:45:57;;;;;;;4.97;4.25;;;;;;;23.14;48.40;95852.22;5072332;28;20275;-89
2021/09/24 10:48:25;;;;;;;5.53;3.88;;;;;;;23.06;49.27;95842.97;5073852;28;20274;-89
2021/09/24 10:51:02;;;;;;;4.40;4.00;;;;;;;23.00;49.12;95849.22;5087124;28;20216;-89
2021/09/24 10:53:40;;;;;;;7.72;4.00;;;;;;;23.01;49.59;95848.19;5093988;28;20203;-89
2021/09/24 10:56:29;;;;;;;3.92;3.55;;;;;;;23.04;48.84;95848.47;5093809;28;20744;-88
2021/09/24 10:58:56;;;;;;;7.53;4.28;;;;;;;22.99;48.71;95851.06;5093681;28;20314;-88
2021/09/24 11:01:32;;;;;;;4.78;4.38;;;;;;;22.85;48.91;95852.50;5093887;28;20906;-89
2021/09/24 11:04:02;;;;;;;4.70;4.40;;;;;;;22.77;48.91;95844.22;5093704;28;20203;-88
2021/09/24 11:06:37;;;;;;;6.40;4.15;;;;;;;22.79;49.91;95845.59;5093881;28;20590;-89
2021/09/24 11:09:06;;;;;;;6.88;6.18;;;;;;;22.91;49.45;95840.19;5093470;28;20211;-88
2021/09/24 11:11:39;;;;;;;8.88;8.07;;;;;;;23.00;50.17;95838.72;5093787;28;20595;-88
2021/09/24 11:14:26;;;;;;;5.60;4.43;;;;;;;22.97;49.33;95841.81;5093235;28;20596;-88
2021/09/24 11:16:54;;;;;;;4.53;4.13;;;;;;;22.99;48.39;95839.75;5093260;28;20267;-89
2021/09/24 11:19:42;;;;;;;4.05;3.75;;;;;;;22.94;48.63;95837.88;5093495;28;20200;-88
2021/09/24 11:22:17;;;;;;;4.60;4.20;;;;;;;22.82;49.70;95829.34;5093027;28;20204;-88
2021/09/24 11:24:47;;;;;;;3.85;3.58;;;;;;;22.84;49.79;95829.09;5093276;28;20196;-88
2021/09/24 11:27:30;;;;;;;4.85;4.07;;;;;;;22.88;49.32;95825.75;5093091;28;20204;-88
2021/09/24 11:30:21;;;;;;;4.75;4.30;;;;;;;22.84;49.36;95829.91;5093362;28;20235;-88
2021/09/24 11:32:49;;;;;;;4.35;3.90;;;;;;;22.86;49.69;95835.69;5093568;28;20261;-88
2021/09/24 11:35:36;;;;;;;4.97;4.47;;;;;;;22.76;49.15;95827.66;5093336;28;20200;-88
2021/09/24 11:38:17;;;;;;;4.95;4.43;;;;;;;22.79;49.26;95827.22;5093360;28;20531;-88
2021/09/24 11:40:53;;;;;;;4.30;4.00;;;;;;;22.69;47.59;95821.84;5093481;28;20231;-88